createdAt,value
2018-02-19T00:00:37.952Z,9.53
2018-02-19T00:03:06.500Z,9.61
2018-02-19T00:05:35.861Z,9.57
2018-02-19T00:08:04.416Z,9.73
2018-02-19T00:10:32.978Z,9.72
2018-02-19T00:13:01.577Z,9.77
2018-02-19T00:15:30.128Z,9.77
2018-02-19T00:17:59.452Z,9.66
2018-02-19T00:20:28.144Z,9.90
2018-02-19T00:22:56.700Z,10.01
2018-02-19T00:25:26.045Z,9.58
2018-02-19T00:27:54.792Z,10.25
2018-02-19T00:30:24.112Z,9.99
2018-02-19T00:32:52.669Z,10.35
2018-02-19T00:35:22.048Z,10.63
2018-02-19T00:37:50.620Z,10.71
2018-02-19T00:40:19.173Z,10.53
2018-02-19T00:42:47.778Z,10.28
2018-02-19T00:45:16.332Z,10.54
2018-02-19T00:47:44.887Z,10.57
2018-02-19T00:50:13.487Z,10.41
2018-02-19T00:52:42.046Z,10.32
2018-02-19T00:55:10.600Z,10.26
2018-02-19T00:57:39.493Z,9.77
2018-02-19T01:00:08.076Z,10.00
2018-02-19T01:02:36.633Z,10.07
2018-02-19T01:05:05.242Z,10.25
2018-02-19T01:07:33.800Z,10.09
2018-02-19T01:10:02.373Z,10.36
2018-02-19T01:12:31.133Z,10.19
2018-02-19T01:15:00.457Z,10.18
2018-02-19T01:17:29.008Z,10.32
2018-02-19T01:19:59.223Z,10.33
2018-02-19T01:22:27.780Z,9.97
2018-02-19T01:24:56.339Z,10.23
2018-02-19T01:27:25.155Z,10.29
2018-02-19T01:29:53.712Z,10.22
2018-02-19T01:32:22.272Z,10.22
2018-02-19T01:34:51.933Z,10.36
2018-02-19T01:37:20.487Z,10.19
2018-02-19T01:39:49.106Z,10.33
2018-02-19T01:42:17.806Z,10.17
2018-02-19T01:44:46.373Z,10.31
2018-02-19T01:47:14.940Z,10.24
2018-02-19T01:50:01.358Z,10.33
2018-02-19T01:52:29.916Z,10.30
2018-02-19T01:54:58.472Z,10.22
2018-02-19T01:57:27.848Z,10.15
2018-02-19T01:59:57.179Z,10.35
2018-02-19T02:02:25.732Z,10.25
2018-02-19T02:04:54.476Z,10.30
2018-02-19T02:07:23.029Z,10.32
2018-02-19T02:09:51.576Z,10.40
2018-02-19T02:12:20.169Z,10.55
2018-02-19T02:14:48.724Z,10.70
2018-02-19T02:17:17.273Z,10.68
2018-02-19T02:19:46.036Z,10.50
2018-02-19T02:22:15.347Z,10.65
2018-02-19T02:24:43.904Z,10.60
2018-02-19T02:27:12.544Z,10.70
2018-02-19T02:29:41.101Z,10.58
2018-02-19T02:32:09.657Z,10.52
2018-02-19T02:34:38.412Z,10.42
2018-02-19T02:37:06.969Z,10.50
2018-02-19T02:39:35.524Z,10.32
2018-02-19T02:42:05.186Z,10.46
2018-02-19T02:44:33.736Z,10.43
2018-02-19T02:47:02.293Z,10.35
2018-02-19T02:49:31.661Z,10.23
2018-02-19T02:52:00.214Z,10.33
2018-02-19T02:54:28.765Z,9.95
2018-02-19T02:56:58.134Z,10.06
2018-02-19T02:59:26.682Z,9.98
2018-02-19T03:01:55.234Z,10.02
2018-02-19T03:04:24.688Z,9.96
2018-02-19T03:06:53.235Z,9.95
2018-02-19T03:09:21.796Z,10.05
2018-02-19T03:11:51.264Z,10.16
2018-02-19T03:14:19.884Z,9.76
2018-02-19T03:16:49.197Z,9.63
2018-02-19T03:19:18.757Z,9.61
2018-02-19T03:21:47.307Z,9.79
2018-02-19T03:24:15.864Z,10.06
2018-02-19T03:26:45.625Z,10.07
2018-02-19T03:29:14.224Z,9.96
2018-02-19T03:31:42.780Z,10.21
2018-02-19T03:34:11.584Z,10.03
2018-02-19T03:36:40.140Z,10.26
2018-02-19T03:39:08.709Z,10.44
2018-02-19T03:41:37.639Z,10.57
2018-02-19T03:44:06.195Z,10.66
2018-02-19T03:46:34.776Z,10.72
2018-02-19T03:49:03.376Z,10.56
2018-02-19T03:51:31.927Z,10.52
2018-02-19T03:54:01.246Z,10.36
2018-02-19T03:56:29.860Z,10.36
2018-02-19T03:58:58.409Z,10.31
2018-02-19T04:01:26.960Z,10.32
2018-02-19T04:03:56.439Z,10.28
2018-02-19T04:06:24.996Z,10.26
2018-02-19T04:08:53.549Z,10.16
2018-02-19T04:11:22.380Z,10.25
2018-02-19T04:13:50.937Z,10.17
2018-02-19T04:16:19.489Z,10.05
2018-02-19T04:18:48.852Z,10.03
2018-02-19T04:21:17.407Z,10.22
2018-02-19T04:23:45.967Z,10.28
2018-02-19T04:26:15.425Z,10.13
2018-02-19T04:28:43.973Z,9.77
2018-02-19T04:31:12.520Z,9.57
2018-02-19T04:33:41.892Z,9.68
2018-02-19T04:36:10.437Z,9.53
2018-02-19T04:38:38.984Z,9.64
2018-02-19T04:41:08.347Z,9.88
2018-02-19T04:43:36.928Z,9.72
2018-02-19T04:46:17.278Z,9.66
2018-02-19T04:48:45.826Z,9.75
2018-02-19T04:51:15.137Z,9.76
2018-02-19T04:53:44.678Z,9.70
2018-02-19T04:56:13.228Z,9.81
2018-02-19T04:58:41.776Z,9.69
2018-02-19T05:01:10.385Z,9.67
2018-02-19T05:03:38.937Z,9.92
2018-02-19T05:12:52.753Z,9.81
2018-02-19T05:15:22.068Z,9.67
2018-02-19T05:17:50.615Z,9.65
2018-02-19T05:20:20.193Z,9.66
2018-02-19T05:22:48.744Z,9.67
2018-02-19T05:25:17.293Z,9.79
2018-02-19T05:27:45.932Z,9.72
2018-02-19T05:30:16.928Z,9.72
2018-02-19T05:32:46.565Z,9.71
2018-02-19T05:35:15.112Z,9.74
2018-02-19T05:37:43.662Z,9.87
2018-02-19T05:40:13.033Z,9.92
2018-02-19T05:42:41.580Z,9.99
2018-02-19T05:45:10.146Z,10.01
2018-02-19T05:47:39.546Z,9.93
2018-02-19T05:50:08.857Z,9.89
2018-02-19T05:52:37.577Z,9.88
2018-02-19T05:55:06.204Z,9.96
2018-02-19T05:57:35.576Z,10.02
2018-02-19T06:00:04.372Z,10.05
2018-02-19T06:02:33.394Z,10.16
2018-02-19T06:05:02.708Z,10.19
2018-02-19T06:07:32.021Z,9.98
2018-02-19T06:10:00.769Z,9.96
2018-02-19T06:12:29.363Z,10.08
2018-02-19T06:14:57.916Z,10.08
2018-02-19T06:17:26.541Z,10.13
2018-02-19T06:19:55.861Z,10.07
2018-02-19T06:22:24.425Z,10.13
2018-02-19T06:24:53.797Z,10.05
2018-02-19T06:27:22.353Z,10.08
2018-02-19T06:29:50.921Z,10.28
2018-02-19T06:32:19.529Z,10.34
2018-02-19T06:34:48.080Z,10.22
2018-02-19T06:37:16.633Z,10.23
2018-02-19T06:39:46.408Z,10.22
2018-02-19T06:42:14.960Z,10.28
2018-02-19T06:44:43.518Z,10.38
2018-02-19T06:47:12.891Z,10.43
2018-02-19T06:49:41.453Z,10.41
2018-02-19T06:52:10.004Z,10.54
2018-02-19T06:54:38.623Z,10.85
2018-02-19T06:57:07.177Z,10.92
2018-02-19T06:59:35.734Z,10.89
2018-02-19T07:02:05.108Z,10.71
2018-02-19T07:04:33.674Z,10.59
2018-02-19T07:07:02.228Z,10.71
2018-02-19T07:09:30.842Z,10.98
2018-02-19T07:11:59.406Z,10.83
2018-02-19T07:14:27.984Z,10.73
2018-02-19T07:16:56.586Z,10.56
2018-02-19T07:19:25.145Z,10.65
2018-02-19T07:21:53.697Z,10.51
2018-02-19T07:24:23.061Z,10.53
2018-02-19T07:26:51.613Z,10.77
2018-02-19T07:29:20.170Z,10.73
2018-02-19T07:31:49.636Z,10.65
2018-02-19T07:34:18.194Z,10.94
2018-02-19T07:36:46.749Z,10.74
2018-02-19T07:39:15.444Z,10.96
2018-02-19T07:41:44.001Z,10.97
2018-02-19T07:44:13.359Z,10.97
2018-02-19T07:46:42.358Z,11.27
2018-02-19T07:49:10.916Z,10.66
2018-02-19T07:51:39.473Z,10.83
2018-02-19T07:54:08.840Z,10.61
2018-02-19T07:56:37.401Z,10.56
2018-02-19T07:59:05.952Z,10.65
2018-02-19T08:01:34.567Z,10.38
2018-02-19T08:04:03.118Z,10.61
2018-02-19T08:06:31.668Z,10.75
2018-02-19T08:09:00.264Z,10.53
2018-02-19T08:11:29.588Z,10.68
2018-02-19T08:13:58.137Z,10.78
2018-02-19T08:16:27.520Z,10.67
2018-02-19T08:18:56.077Z,10.85
2018-02-19T08:21:24.629Z,10.77
2018-02-19T08:23:53.272Z,10.66
2018-02-19T08:26:21.833Z,10.71
2018-02-19T08:28:50.418Z,10.84
2018-02-19T08:31:19.014Z,10.78
2018-02-19T08:33:47.569Z,10.66
2018-02-19T08:36:16.124Z,10.87
2018-02-19T08:38:45.484Z,11.08
2018-02-19T08:41:14.044Z,11.06
2018-02-19T08:43:42.596Z,11.04
2018-02-19T08:46:11.973Z,11.15
2018-02-19T08:48:40.551Z,11.17
2018-02-19T08:51:09.107Z,11.56
2018-02-19T08:53:37.709Z,11.48
2018-02-19T08:56:06.270Z,11.79
2018-02-19T08:58:34.821Z,11.68
2018-02-19T09:01:03.641Z,11.61
2018-02-19T09:03:32.193Z,11.43
2018-02-19T09:06:00.752Z,10.94
2018-02-19T09:08:30.124Z,11.31
2018-02-19T09:10:58.728Z,11.52
2018-02-19T09:13:27.276Z,11.37
2018-02-19T09:15:55.873Z,11.32
2018-02-19T09:18:24.424Z,11.39
2018-02-19T09:20:52.978Z,11.38
2018-02-19T09:23:22.441Z,11.37
2018-02-19T09:25:50.997Z,11.28
2018-02-19T09:28:19.552Z,11.62
2018-02-19T09:30:49.089Z,11.41
2018-02-19T09:33:17.648Z,11.08
2018-02-19T09:35:46.201Z,11.16
2018-02-19T09:38:14.808Z,11.24
2018-02-19T09:40:44.127Z,11.30
2018-02-19T09:43:12.681Z,11.05
2018-02-19T09:45:42.137Z,11.10
2018-02-19T09:48:10.693Z,10.94
2018-02-19T09:50:39.250Z,11.06
2018-02-19T09:53:08.733Z,10.83
2018-02-19T09:55:37.298Z,10.88
2018-02-19T09:58:05.855Z,11.07
2018-02-19T10:00:34.457Z,11.07
2018-02-19T10:03:03.004Z,11.12
2018-02-19T10:05:32.336Z,11.07
2018-02-19T10:08:00.966Z,11.05
2018-02-19T10:10:29.522Z,11.01
2018-02-19T10:12:58.081Z,11.12
2018-02-19T10:15:26.688Z,11.18
2018-02-19T10:17:55.244Z,11.01
2018-02-19T10:20:23.800Z,11.30
2018-02-19T10:22:53.552Z,11.38
2018-02-19T10:25:22.109Z,11.34
2018-02-19T10:27:50.657Z,11.34
2018-02-19T10:30:20.915Z,11.10
2018-02-19T10:32:49.473Z,11.18
2018-02-19T10:35:18.792Z,10.95
2018-02-19T10:37:47.618Z,11.01
2018-02-19T10:40:16.166Z,11.00
2018-02-19T10:42:44.719Z,10.98
2018-02-19T10:45:13.469Z,11.26
2018-02-19T10:47:42.024Z,11.08
2018-02-19T10:50:10.579Z,10.92
2018-02-19T10:52:40.140Z,10.99
2018-02-19T10:55:09.461Z,10.87
2018-02-19T10:57:38.026Z,11.02
2018-02-19T11:00:06.673Z,10.67
2018-02-19T11:02:35.228Z,10.54
2018-02-19T11:05:04.557Z,10.25
2018-02-19T11:07:33.301Z,10.55
2018-02-19T11:10:01.864Z,10.36
2018-02-19T11:12:30.421Z,10.34
2018-02-19T11:14:59.030Z,10.42
2018-02-19T11:17:27.589Z,10.50
2018-02-19T11:19:56.151Z,10.23
2018-02-19T11:22:25.702Z,10.42
2018-02-19T11:24:54.253Z,10.43
2018-02-19T11:27:22.833Z,10.37
2018-02-19T11:29:51.490Z,10.33
2018-02-19T11:32:20.037Z,10.52
2018-02-19T11:34:48.628Z,10.58
2018-02-19T11:37:17.232Z,10.77
2018-02-19T11:39:45.791Z,10.75
2018-02-19T11:42:14.345Z,10.76
2018-02-19T11:44:42.953Z,10.96
2018-02-19T11:47:11.510Z,10.89
2018-02-19T11:49:40.069Z,11.13
2018-02-19T11:52:09.541Z,10.84
2018-02-19T11:54:38.122Z,11.12
2018-02-19T11:57:06.691Z,11.23
2018-02-19T11:59:35.484Z,11.00
2018-02-19T12:02:04.033Z,11.15
2018-02-19T12:04:32.593Z,11.05
2018-02-19T12:07:02.138Z,11.04
2018-02-19T12:09:30.700Z,11.29
2018-02-19T12:11:59.257Z,11.35
2018-02-19T12:14:28.947Z,11.54
2018-02-19T12:16:57.525Z,11.43
2018-02-19T12:19:26.150Z,11.34
2018-02-19T12:21:54.762Z,11.24
2018-02-19T12:24:23.361Z,11.27
2018-02-19T12:26:51.921Z,11.26
2018-02-19T12:29:20.733Z,10.94
2018-02-19T12:31:49.381Z,10.91
2018-02-19T12:34:17.933Z,10.92
2018-02-19T12:36:48.145Z,11.02
2018-02-19T12:39:16.705Z,11.15
2018-02-19T12:41:45.265Z,11.30
2018-02-19T12:44:13.881Z,11.30
2018-02-19T12:46:42.445Z,11.17
2018-02-19T12:49:11.004Z,11.33
2018-02-19T12:51:39.831Z,11.26
2018-02-19T12:54:08.392Z,11.08
2018-02-19T12:56:36.958Z,10.98
2018-02-19T12:59:05.666Z,11.15
2018-02-19T13:01:34.226Z,11.11
2018-02-19T13:04:02.781Z,11.06
2018-02-19T13:06:32.249Z,10.89
2018-02-19T13:09:00.800Z,11.25
2018-02-19T13:11:29.368Z,11.11
2018-02-19T13:13:58.744Z,10.90
2018-02-19T13:16:27.304Z,11.03
2018-02-19T13:18:55.856Z,11.15
2018-02-19T13:21:24.472Z,11.44
2018-02-19T21:06:47.553Z,9.50
2018-02-19T21:09:16.100Z,9.40
2018-02-19T21:11:44.644Z,9.50
2018-02-19T21:14:13.252Z,9.44
2018-02-19T21:16:42.569Z,9.55
2018-02-19T21:21:19.669Z,12.42
2018-02-19T21:23:48.221Z,12.49
2018-02-19T21:26:17.545Z,12.10
2018-02-19T21:28:46.908Z,12.24
2018-02-19T21:31:15.473Z,12.30
2018-02-19T21:33:44.028Z,12.17
2018-02-19T21:36:12.631Z,12.39
2018-02-19T21:38:41.183Z,12.68
2018-02-19T21:41:09.732Z,13.00
2018-02-19T21:43:38.348Z,13.16
2018-02-19T21:46:06.930Z,12.31
2018-02-19T21:48:35.512Z,12.09
2018-02-19T21:51:04.447Z,11.99
2018-02-19T21:53:33.330Z,11.96
2018-02-19T21:56:01.896Z,12.28
2018-02-19T21:58:30.514Z,12.20
2018-02-19T22:00:59.089Z,12.49
2018-02-19T22:03:27.645Z,12.62
2018-02-19T22:05:56.352Z,12.38
2018-02-19T22:08:24.791Z,11.42
2018-02-19T22:10:53.996Z,11.84
2018-02-19T22:13:22.812Z,11.39
2018-02-19T22:15:51.247Z,11.76
2018-02-19T22:18:19.686Z,11.70
2018-02-19T22:20:48.346Z,11.99
2018-02-19T22:23:16.770Z,11.26
2018-02-19T22:25:45.197Z,11.51
2018-02-19T22:28:13.824Z,11.11
2018-02-19T22:30:42.269Z,11.30
2018-02-19T22:33:10.703Z,11.59
2018-02-19T22:35:39.543Z,11.62
2018-02-19T22:38:07.982Z,11.78
2018-02-19T22:40:37.187Z,11.81
2018-02-19T22:43:05.691Z,11.07
2018-02-19T22:45:34.122Z,11.69
2018-02-19T22:48:02.555Z,11.42
2018-02-19T22:50:31.027Z,11.29
2018-02-19T22:53:00.223Z,11.67
2018-02-19T22:55:28.655Z,11.28
2018-02-19T22:57:57.255Z,11.34
2018-02-19T23:00:25.699Z,11.35
2018-02-19T23:02:54.126Z,11.39
2018-02-19T23:05:22.602Z,11.44
2018-02-19T23:07:51.038Z,11.18
2018-02-19T23:10:19.471Z,11.30
2018-02-19T23:12:48.902Z,11.67
2018-02-19T23:15:17.342Z,11.03
2018-02-19T23:17:45.772Z,11.37
2018-02-19T23:20:14.700Z,11.26
2018-02-19T23:22:43.206Z,10.86
2018-02-19T23:25:12.402Z,11.17
2018-02-19T23:27:41.656Z,11.17
2018-02-19T23:30:10.096Z,11.04
2018-02-19T23:32:39.295Z,11.41
2018-02-19T23:35:09.030Z,11.21
2018-02-19T23:37:37.518Z,11.19
2018-02-19T23:40:05.954Z,10.97
2018-02-19T23:42:35.405Z,10.92
2018-02-19T23:45:04.172Z,11.03
2018-02-19T23:47:32.608Z,10.85
2018-02-19T23:50:02.228Z,11.21
2018-02-19T23:52:30.671Z,11.25
2018-02-19T23:54:59.136Z,10.85
2018-02-19T23:57:27.713Z,10.69
2018-02-19T23:59:56.154Z,11.08
